createdAt,value
2019-04-16T00:01:58.919Z,45.36
2019-04-16T00:04:38.851Z,45.40
2019-04-16T00:07:25.975Z,45.49
2019-04-16T00:10:02.706Z,45.71
2019-04-16T00:12:45.883Z,45.88
2019-04-16T00:15:15.073Z,46.03
2019-04-16T00:17:47.287Z,46.17
2019-04-16T00:20:15.286Z,46.34
2019-04-16T00:22:51.057Z,46.41
2019-04-16T00:25:20.214Z,46.77
2019-04-16T00:27:49.364Z,47.04
2019-04-16T00:30:18.516Z,47.34
2019-04-16T00:32:47.743Z,47.90
2019-04-16T00:35:16.893Z,48.47
2019-04-16T00:37:46.071Z,48.29
2019-04-16T00:40:15.500Z,48.62
2019-04-16T00:42:44.744Z,49.77
2019-04-16T00:45:14.245Z,49.93
2019-04-16T00:47:43.438Z,50.60
2019-04-16T00:50:12.618Z,50.99
2019-04-16T00:52:41.802Z,50.36
2019-04-16T00:55:14.541Z,51.00
2019-04-16T00:57:42.134Z,52.63
2019-04-16T01:00:11.618Z,54.02
2019-04-16T01:02:40.781Z,54.45
2019-04-16T01:05:10.087Z,55.43
2019-04-16T01:07:39.262Z,56.06
2019-04-16T01:10:08.414Z,56.44
2019-04-16T01:12:37.683Z,57.25
2019-04-16T01:15:07.277Z,57.61
2019-04-16T01:17:36.746Z,58.28
2019-04-16T01:20:06.369Z,58.32
2019-04-16T01:22:35.512Z,58.59
2019-04-16T01:25:05.098Z,58.79
2019-04-16T01:27:37.658Z,58.80
2019-04-16T01:30:07.597Z,59.56
2019-04-16T01:33:02.417Z,59.85
2019-04-16T01:35:51.619Z,60.24
2019-04-16T01:38:50.082Z,60.34
2019-04-16T01:41:21.855Z,61.11
2019-04-16T01:43:50.544Z,61.68
2019-04-16T01:46:19.858Z,62.24
2019-04-16T01:48:49.102Z,62.53
2019-04-16T01:51:18.296Z,62.87
2019-04-16T01:53:49.426Z,63.13
2019-04-16T01:56:18.383Z,63.30
2019-04-16T01:58:47.569Z,63.28
2019-04-16T02:01:16.733Z,63.44
2019-04-16T02:03:48.637Z,63.62
2019-04-16T02:06:16.884Z,63.18
2019-04-16T02:08:46.057Z,62.72
2019-04-16T02:11:15.233Z,60.75
2019-04-16T02:13:46.988Z,59.68
2019-04-16T02:16:16.228Z,58.63
2019-04-16T02:18:45.365Z,59.76
2019-04-16T02:21:14.518Z,59.89
2019-04-16T02:23:45.286Z,60.44
2019-04-16T02:26:14.646Z,61.11
2019-04-16T02:28:43.839Z,61.27
2019-04-16T02:31:15.973Z,60.26
2019-04-16T02:33:43.883Z,60.67
2019-04-16T02:36:13.073Z,59.89
2019-04-16T02:38:46.459Z,59.87
2019-04-16T02:41:13.084Z,59.54
2019-04-16T02:43:42.268Z,59.24
2019-04-16T02:46:11.674Z,60.06
2019-04-16T02:48:40.851Z,60.44
2019-04-16T02:51:28.973Z,60.81
2019-04-16T02:54:13.415Z,60.57
2019-04-16T02:57:13.749Z,61.33
2019-04-16T02:59:47.415Z,61.56
2019-04-16T03:02:35.654Z,61.88
2019-04-16T03:05:21.263Z,62.29
2019-04-16T03:07:50.458Z,62.64
2019-04-16T03:10:19.653Z,63.83
2019-04-16T03:12:51.862Z,65.24
2019-04-16T03:15:37.991Z,65.58
2019-04-16T03:18:08.150Z,65.87
2019-04-16T03:20:37.332Z,66.15
2019-04-16T03:23:07.038Z,66.96
2019-04-16T03:25:36.456Z,67.12
2019-04-16T03:28:05.864Z,67.60
2019-04-16T03:30:40.292Z,67.86
2019-04-16T03:33:12.315Z,68.56
2019-04-16T03:35:36.837Z,69.17
2019-04-16T03:38:07.610Z,69.42
2019-04-16T03:40:36.873Z,69.59
2019-04-16T03:43:06.106Z,69.59
2019-04-16T03:45:37.496Z,70.03
2019-04-16T03:48:06.582Z,69.57
2019-04-16T03:50:35.751Z,69.34
2019-04-16T03:53:05.009Z,69.97
2019-04-16T03:55:34.273Z,69.94
2019-04-16T03:58:06.181Z,70.24
2019-04-16T04:00:34.304Z,70.22
2019-04-16T04:03:03.509Z,70.28
2019-04-16T04:05:35.158Z,70.04
2019-04-16T04:08:03.561Z,70.21
2019-04-16T04:10:36.878Z,69.70
2019-04-16T04:13:05.009Z,69.85
2019-04-16T04:15:34.422Z,69.23
2019-04-16T04:18:03.673Z,70.03
2019-04-16T04:20:32.884Z,68.73
2019-04-16T04:23:02.246Z,74.84
2019-04-16T04:25:35.964Z,71.92
2019-04-16T04:28:02.475Z,71.13
2019-04-16T04:30:31.641Z,69.25
2019-04-16T04:33:00.822Z,70.57
2019-04-16T04:35:30.006Z,70.37
2019-04-16T04:38:00.776Z,67.62
2019-04-16T04:40:43.464Z,67.89
2019-04-16T04:43:01.763Z,68.80
2019-04-16T04:45:31.099Z,69.18
2019-04-16T04:48:00.261Z,70.39
2019-04-16T04:50:29.433Z,70.54
2019-04-16T04:52:58.709Z,70.80
2019-04-16T04:55:27.908Z,71.36
2019-04-16T04:57:57.085Z,71.59
2019-04-16T05:00:26.367Z,72.07
2019-04-16T05:02:55.553Z,72.75
2019-04-16T05:05:32.569Z,72.61
2019-04-16T05:08:01.801Z,72.38
2019-04-16T05:10:30.969Z,72.35
2019-04-16T05:13:00.493Z,73.22
2019-04-16T05:15:30.166Z,73.80
2019-04-16T05:17:59.401Z,74.34
2019-04-16T05:20:30.002Z,74.08
2019-04-16T05:22:59.335Z,74.22
2019-04-16T05:25:33.046Z,74.09
2019-04-16T05:27:59.440Z,74.66
2019-04-16T05:30:28.616Z,75.24
2019-04-16T05:32:57.787Z,75.41
2019-04-16T05:35:26.985Z,75.07
2019-04-16T05:37:56.187Z,74.99
2019-04-16T05:40:28.053Z,74.55
2019-04-16T05:42:58.917Z,74.56
2019-04-16T05:45:27.551Z,74.84
2019-04-16T05:47:56.790Z,74.53
2019-04-16T05:50:29.697Z,74.45
2019-04-16T05:52:57.636Z,74.29
2019-04-16T05:55:35.570Z,73.47
2019-04-16T05:58:04.841Z,72.90
2019-04-16T06:00:56.012Z,71.63
2019-04-16T06:03:25.249Z,71.01
2019-04-16T06:05:56.300Z,70.29
2019-04-16T06:08:25.420Z,69.30
2019-04-16T06:10:57.299Z,67.20
2019-04-16T06:13:47.421Z,66.65
2019-04-16T06:16:41.818Z,65.44
2019-04-16T06:19:46.837Z,62.20
2019-04-16T06:22:28.674Z,60.87
2019-04-16T06:25:23.267Z,59.28
2019-04-16T06:28:14.465Z,57.55
2019-04-16T06:31:21.081Z,55.70
2019-04-16T06:34:08.293Z,54.19
2019-04-16T06:36:59.669Z,52.40
2019-04-16T06:39:34.312Z,52.00
2019-04-16T06:42:09.256Z,51.55
2019-04-16T06:44:58.264Z,51.02
2019-04-16T06:47:44.604Z,49.76
2019-04-16T06:50:44.820Z,48.73
2019-04-16T06:53:32.962Z,48.21
2019-04-16T06:56:40.345Z,47.43
2019-04-16T06:59:30.659Z,46.06
2019-04-16T07:02:25.371Z,45.26
2019-04-16T07:05:07.699Z,45.90
2019-04-16T07:07:47.202Z,45.60
2019-04-16T07:10:18.859Z,44.38
2019-04-16T07:12:48.519Z,44.69
2019-04-16T07:15:22.281Z,44.04
2019-04-16T07:17:48.748Z,44.27
2019-04-16T07:20:17.916Z,45.09
2019-04-16T07:22:47.440Z,45.14
2019-04-16T07:25:17.224Z,45.08
2019-04-16T07:28:08.465Z,44.83
2019-04-16T07:30:48.549Z,44.58
2019-04-16T07:33:24.021Z,44.95
2019-04-16T07:36:06.793Z,44.34
2019-04-16T07:38:42.277Z,43.58
2019-04-16T07:41:17.172Z,43.09
2019-04-16T07:44:10.223Z,41.89
2019-04-16T07:46:53.740Z,41.68
2019-04-16T07:49:41.267Z,41.68
2019-04-16T07:52:26.151Z,40.80
2019-04-16T07:55:14.297Z,40.14
2019-04-16T07:57:43.763Z,39.66
2019-04-16T08:00:13.720Z,38.49
2019-04-16T08:02:42.928Z,38.05
2019-04-16T08:05:12.170Z,39.27
2019-04-16T08:07:41.298Z,39.48
2019-04-16T08:10:10.747Z,39.48
2019-04-16T08:12:42.440Z,38.16
2019-04-16T08:15:14.195Z,36.74
2019-04-16T08:17:42.794Z,36.41
2019-04-16T08:20:12.174Z,37.68
2019-04-16T08:22:41.498Z,36.68
2019-04-16T08:25:11.121Z,36.47
2019-04-16T08:27:40.416Z,36.56
2019-04-16T08:30:12.823Z,37.49
2019-04-16T08:32:42.124Z,37.85
2019-04-16T08:35:11.458Z,37.51
2019-04-16T08:37:48.918Z,36.83
2019-04-16T08:40:12.459Z,36.38
2019-04-16T08:42:44.763Z,36.95
2019-04-16T08:45:13.702Z,36.55
2019-04-16T08:47:45.134Z,36.08
2019-04-16T08:50:14.048Z,35.52
2019-04-16T08:52:43.539Z,35.42
2019-04-16T08:55:12.875Z,35.89
2019-04-16T08:57:42.165Z,33.96
2019-04-16T09:00:15.220Z,33.96
2019-04-16T09:02:44.418Z,34.17
2019-04-16T09:05:13.883Z,33.66
2019-04-16T09:07:43.017Z,33.23
2019-04-16T09:10:18.917Z,33.21
2019-04-16T09:12:55.952Z,33.51
2019-04-16T09:15:23.358Z,33.48
2019-04-16T09:18:03.280Z,33.42
2019-04-16T09:20:37.795Z,32.93
2019-04-16T09:23:07.615Z,33.04
2019-04-16T09:26:11.334Z,32.05
2019-04-16T09:28:36.664Z,32.42
2019-04-16T09:31:28.927Z,33.56
2019-04-16T09:34:05.291Z,34.34
2019-04-16T09:37:01.382Z,34.50
2019-04-16T09:39:39.183Z,34.13
2019-04-16T09:42:08.463Z,33.95
2019-04-16T09:44:37.699Z,33.77
2019-04-16T09:47:07.221Z,33.15
2019-04-16T09:49:37.649Z,34.21
2019-04-16T09:52:07.674Z,33.94
2019-04-16T09:54:36.907Z,34.09
2019-04-16T09:57:06.236Z,33.18
2019-04-16T09:59:44.655Z,33.63
2019-04-16T10:02:26.633Z,31.83
2019-04-16T10:04:55.962Z,31.99
2019-04-16T10:07:25.234Z,31.66
2019-04-16T10:09:55.260Z,31.79
2019-04-16T10:12:24.535Z,32.23
2019-04-16T10:14:53.904Z,31.23
2019-04-16T10:17:23.302Z,31.50
2019-04-16T10:19:52.637Z,31.50
2019-04-16T10:22:21.875Z,31.20
2019-04-16T10:25:00.758Z,30.77
2019-04-16T10:27:33.761Z,31.45
2019-04-16T10:30:03.192Z,30.21
2019-04-16T10:32:32.438Z,29.96
2019-04-16T10:35:01.743Z,30.56
2019-04-16T10:37:31.495Z,29.30
2019-04-16T10:40:09.716Z,29.42
2019-04-16T10:42:53.845Z,30.71
2019-04-16T10:45:53.953Z,30.35
2019-04-16T10:48:40.701Z,31.59
2019-04-16T10:51:28.829Z,30.52
2019-04-16T10:54:03.330Z,29.67
2019-04-16T10:56:50.406Z,29.14
2019-04-16T10:59:21.710Z,29.79
2019-04-16T11:02:10.716Z,31.38
2019-04-16T11:05:19.269Z,31.33
2019-04-16T11:07:49.978Z,31.85
2019-04-16T11:10:19.651Z,32.95
2019-04-16T11:12:49.071Z,32.68
2019-04-16T11:15:21.682Z,30.29
2019-04-16T11:17:50.906Z,28.69
2019-04-16T11:20:20.129Z,27.45
2019-04-16T11:22:49.309Z,28.51
2019-04-16T11:25:18.675Z,29.20
2019-04-16T11:27:48.008Z,28.63
2019-04-16T11:30:35.481Z,28.12
2019-04-16T11:33:05.156Z,27.75
2019-04-16T11:35:35.306Z,27.57
2019-04-16T11:38:04.882Z,27.06
2019-04-16T11:40:34.116Z,28.40
2019-04-16T11:43:03.412Z,29.57
2019-04-16T11:45:32.581Z,28.87
2019-04-16T11:48:01.984Z,28.69
2019-04-16T11:50:31.251Z,28.29
2019-04-16T11:53:00.559Z,29.20
2019-04-16T11:55:29.847Z,28.82
2019-04-16T11:57:59.191Z,29.15
2019-04-16T12:00:53.239Z,28.80
2019-04-16T12:03:28.631Z,30.47
2019-04-16T12:06:28.544Z,31.25
2019-04-16T12:09:24.426Z,30.66
2019-04-16T12:12:01.202Z,30.96
2019-04-16T12:14:49.480Z,29.57
2019-04-16T12:17:40.474Z,32.05
2019-04-16T12:20:45.307Z,30.50
2019-04-16T12:23:45.466Z,29.18
2019-04-16T12:26:26.799Z,31.16
2019-04-16T12:29:17.773Z,29.44
2019-04-16T12:31:58.010Z,29.97
2019-04-16T12:34:46.184Z,31.57
2019-04-16T12:37:37.388Z,33.13
2019-04-16T12:40:18.927Z,32.78
2019-04-16T12:43:07.063Z,31.81
2019-04-16T12:45:53.515Z,34.66
2019-04-16T12:48:44.929Z,35.06
2019-04-16T12:51:26.038Z,34.04
2019-04-16T12:54:02.371Z,33.48
2019-04-16T12:56:53.793Z,33.22
2019-04-16T12:59:27.484Z,32.31
2019-04-16T13:02:21.717Z,32.24
2019-04-16T13:05:20.873Z,32.84
2019-04-16T13:07:51.598Z,32.31
2019-04-16T13:10:26.532Z,34.02
2019-04-16T13:13:13.411Z,32.39
2019-04-16T13:15:50.906Z,30.61
2019-04-16T13:18:27.553Z,29.21
2019-04-16T13:21:18.769Z,30.88
2019-04-16T13:24:01.353Z,31.39
2019-04-16T13:26:52.936Z,32.33
2019-04-16T13:29:28.977Z,31.38
2019-04-16T13:31:55.166Z,29.65
2019-04-16T13:34:24.385Z,28.53
2019-04-16T13:36:59.302Z,30.18
2019-04-16T13:39:42.574Z,30.60
2019-04-16T13:42:11.910Z,30.47
2019-04-16T13:44:50.842Z,31.63
2019-04-16T13:47:20.168Z,30.21
2019-04-16T13:50:03.593Z,28.84
2019-04-16T13:52:32.014Z,27.86
2019-04-16T13:55:26.098Z,29.25
2019-04-16T13:58:05.678Z,31.36
2019-04-16T14:00:44.797Z,30.95
2019-04-16T14:03:16.548Z,31.84
2019-04-16T14:05:45.808Z,30.70
2019-04-16T14:08:15.267Z,30.41
2019-04-16T14:10:44.621Z,31.52
2019-04-16T14:13:14.399Z,31.01
2019-04-16T14:15:44.903Z,29.98
2019-04-16T14:18:14.203Z,30.75
2019-04-16T14:20:43.511Z,31.01
2019-04-16T14:23:13.411Z,31.74
2019-04-16T14:25:42.715Z,31.35
2019-04-16T14:28:12.014Z,32.75
2019-04-16T14:30:45.213Z,31.51
2019-04-16T14:33:17.367Z,31.57
2019-04-16T14:35:46.616Z,32.53
2019-04-16T14:38:18.616Z,31.51
2019-04-16T14:40:48.092Z,33.18
2019-04-16T14:43:20.296Z,33.22
2019-04-16T14:45:58.322Z,33.43
2019-04-16T14:48:22.939Z,32.13
2019-04-16T14:50:52.297Z,31.10
2019-04-16T14:53:39.155Z,31.75
2019-04-16T14:56:27.356Z,30.93
2019-04-16T14:59:05.217Z,29.77
2019-04-16T15:01:43.577Z,28.73
2019-04-16T15:04:17.594Z,29.22
2019-04-16T15:07:14.936Z,31.01
2019-04-16T15:10:02.459Z,32.12
2019-04-16T15:12:39.775Z,31.34
2019-04-16T15:15:16.518Z,31.79
2019-04-16T15:17:57.954Z,31.35
2019-04-16T15:20:52.313Z,31.79
2019-04-16T15:23:32.128Z,32.14
2019-04-16T15:26:19.238Z,33.10
2019-04-16T15:28:53.432Z,34.04
2019-04-16T15:31:44.755Z,34.77
2019-04-16T15:34:17.201Z,33.74
2019-04-16T15:37:09.629Z,32.49
2019-04-16T15:39:49.325Z,32.51
2019-04-16T15:42:36.202Z,32.51
2019-04-16T15:45:12.459Z,33.10
2019-04-16T15:47:53.219Z,34.50
2019-04-16T15:50:39.964Z,34.75
2019-04-16T15:53:15.606Z,34.29
2019-04-16T15:56:03.492Z,34.20
2019-04-16T15:58:39.079Z,34.84
2019-04-16T16:01:29.905Z,34.74
2019-04-16T16:04:22.584Z,34.92
2019-04-16T16:07:01.186Z,36.01
2019-04-16T16:09:41.052Z,37.15
2019-04-16T16:12:11.927Z,36.68
2019-04-16T16:14:41.221Z,37.29
2019-04-16T16:17:10.424Z,38.53
2019-04-16T16:19:40.131Z,38.63
2019-04-16T16:22:11.877Z,39.30
2019-04-16T16:24:42.340Z,39.69
2019-04-16T16:27:11.491Z,39.95
2019-04-16T16:29:40.727Z,40.18
2019-04-16T16:32:09.954Z,39.88
2019-04-16T16:34:39.258Z,40.41
2019-04-16T16:37:08.586Z,40.47
2019-04-16T16:39:37.856Z,40.99
2019-04-16T16:42:07.180Z,40.96
2019-04-16T16:44:36.343Z,40.49
2019-04-16T16:47:31.127Z,40.42
2019-04-16T16:50:10.422Z,40.69
2019-04-16T16:52:52.241Z,40.83
2019-04-16T16:55:39.045Z,41.07
2019-04-16T16:58:39.642Z,41.48
2019-04-16T17:16:01.163Z,43.02
2019-04-16T17:18:31.033Z,43.69
2019-04-16T17:21:00.390Z,43.75
2019-04-16T17:23:29.701Z,44.22
2019-04-16T17:25:59.066Z,44.57
2019-04-16T17:28:28.404Z,44.91
2019-04-16T17:30:57.768Z,45.24
2019-04-16T17:33:27.052Z,44.95
2019-04-16T17:35:56.603Z,45.43
2019-04-16T17:38:25.784Z,45.75
2019-04-16T17:40:59.511Z,45.54
2019-04-16T17:43:43.024Z,45.88
2019-04-16T17:46:20.045Z,46.06
2019-04-16T17:49:03.106Z,45.89
2019-04-16T17:51:43.784Z,45.94
2019-04-16T17:54:30.812Z,46.08
2019-04-16T17:57:18.005Z,46.41
2019-04-16T17:59:54.977Z,46.29
2019-04-16T18:02:44.951Z,47.21
2019-04-16T18:05:35.891Z,47.49
2019-04-16T18:08:29.962Z,47.79
2019-04-16T18:11:21.680Z,48.31
2019-04-16T18:14:18.742Z,48.16
2019-04-16T18:16:54.233Z,48.15
2019-04-16T18:19:43.922Z,48.49
2019-04-16T18:22:22.418Z,48.56
2019-04-16T18:25:22.749Z,48.95
2019-04-16T18:28:01.274Z,49.12
2019-04-16T18:30:43.650Z,50.02
2019-04-16T18:33:34.234Z,50.32
2019-04-16T18:36:18.924Z,50.58
2019-04-16T18:39:13.047Z,51.41
2019-04-16T18:41:46.839Z,52.36
2019-04-16T18:44:33.788Z,53.04
2019-04-16T18:47:14.698Z,54.39
2019-04-16T18:49:44.686Z,59.07
2019-04-16T18:52:16.553Z,63.87
2019-04-16T18:54:49.040Z,69.15
2019-04-16T18:57:16.885Z,71.65
2019-04-16T18:59:46.144Z,72.13
2019-04-16T19:02:15.440Z,72.34
2019-04-16T19:04:44.625Z,73.71
2019-04-16T19:07:14.040Z,73.74
2019-04-16T19:09:43.513Z,73.11
2019-04-16T19:12:12.945Z,73.47
2019-04-16T19:14:42.446Z,72.78
2019-04-16T19:17:11.793Z,71.90
2019-04-16T19:19:44.349Z,72.44
2019-04-16T19:22:12.875Z,72.05
2019-04-16T19:24:42.117Z,71.95
2019-04-16T19:27:11.357Z,72.41
2019-04-16T19:29:42.866Z,73.90
2019-04-16T19:32:11.632Z,73.31
2019-04-16T19:34:41.806Z,73.55
2019-04-16T19:37:11.146Z,74.29
2019-04-16T19:39:40.465Z,74.66
2019-04-16T19:42:11.429Z,74.71
2019-04-16T19:44:41.569Z,74.87
2019-04-16T19:47:11.098Z,75.21
2019-04-16T19:49:40.474Z,75.34
2019-04-16T19:52:09.757Z,75.45
2019-04-16T19:54:42.241Z,75.48
2019-04-16T19:57:11.783Z,75.98
2019-04-16T19:59:46.350Z,76.35
2019-04-16T20:02:12.469Z,76.40
2019-04-16T20:04:44.409Z,76.20
2019-04-16T20:07:14.376Z,76.27
2019-04-16T20:09:47.823Z,76.50
2019-04-16T20:12:19.225Z,77.11
2019-04-16T20:14:48.661Z,76.71
2019-04-16T20:17:17.885Z,77.01
2019-04-16T20:20:12.364Z,76.70
2019-04-16T20:22:41.914Z,77.09
2019-04-16T20:25:11.384Z,77.15
2019-04-16T20:27:41.006Z,77.40
2019-04-16T20:30:12.467Z,78.05
2019-04-16T20:32:42.448Z,78.35
2019-04-16T20:35:11.645Z,78.44
2019-04-16T20:37:41.006Z,78.51
2019-04-16T20:40:10.330Z,78.79
2019-04-16T20:42:43.991Z,79.73
2019-04-16T20:45:13.276Z,80.01
2019-04-16T20:47:42.499Z,80.50
2019-04-16T20:50:11.819Z,81.02
2019-04-16T20:52:43.112Z,81.28
2019-04-16T20:55:15.669Z,81.64
2019-04-16T21:01:03.830Z,82.91
2019-04-16T21:03:36.426Z,83.31
2019-04-16T21:06:07.822Z,83.67
2019-04-16T21:08:36.630Z,83.81
2019-04-16T21:11:09.107Z,84.15
2019-04-16T21:13:37.291Z,84.51
2019-04-16T21:16:06.436Z,84.66
2019-04-16T21:18:35.601Z,84.49
2019-04-16T21:21:05.604Z,84.38
2019-04-16T21:23:35.490Z,84.87
2019-04-16T21:26:04.873Z,84.98
2019-04-16T21:28:45.751Z,85.41
2019-04-16T21:31:28.006Z,85.83
2019-04-16T21:34:02.965Z,85.71
2019-04-16T21:36:38.570Z,85.73
2019-04-16T21:39:17.079Z,86.11
2019-04-16T21:41:44.717Z,86.17
2019-04-16T21:44:14.047Z,86.14
2019-04-16T21:46:44.316Z,86.12
2019-04-16T21:49:20.211Z,86.21
2019-04-16T21:52:08.060Z,86.35
2019-04-16T21:54:39.591Z,86.17
2019-04-16T21:57:13.548Z,86.40
2019-04-16T21:59:40.140Z,87.06
2019-04-16T22:02:16.164Z,87.33
2019-04-16T22:04:46.071Z,87.42
2019-04-16T22:07:15.283Z,87.60
2019-04-16T22:09:44.488Z,87.86
2019-04-16T22:12:15.450Z,88.52
2019-04-16T22:14:44.494Z,88.61
2019-04-16T22:17:13.649Z,88.41
2019-04-16T22:19:53.747Z,87.92
2019-04-16T22:22:14.858Z,87.73
2019-04-16T22:24:44.631Z,87.89
2019-04-16T22:27:13.747Z,88.45
2019-04-16T22:29:47.295Z,88.69
2019-04-16T22:32:13.869Z,88.98
2019-04-16T22:34:43.963Z,88.78
2019-04-16T22:37:13.416Z,89.04
2019-04-16T22:40:01.599Z,89.09
2019-04-16T22:42:48.544Z,89.66
2019-04-16T22:45:39.291Z,89.99
2019-04-16T22:48:08.711Z,89.89
2019-04-16T22:50:38.731Z,89.97
2019-04-16T22:53:07.982Z,89.99
2019-04-16T22:55:37.202Z,89.97
2019-04-16T22:58:08.067Z,90.57
2019-04-16T23:00:44.487Z,90.69
2019-04-16T23:03:16.636Z,90.44
2019-04-16T23:05:44.954Z,90.26
2019-04-16T23:08:15.131Z,90.11
2019-04-16T23:10:44.376Z,90.07
2019-04-16T23:13:13.541Z,89.84
2019-04-16T23:15:43.832Z,89.64
2019-04-16T23:18:17.183Z,89.09
2019-04-16T23:20:44.630Z,88.67
2019-04-16T23:23:18.046Z,89.00
2019-04-16T23:25:44.588Z,89.00
2019-04-16T23:28:15.433Z,88.89
2019-04-16T23:30:44.477Z,88.83
2019-04-16T23:33:13.646Z,88.90
2019-04-16T23:35:44.343Z,89.04
2019-04-16T23:38:13.800Z,89.66
2019-04-16T23:40:43.902Z,90.02
2019-04-16T23:43:24.263Z,90.50
2019-04-16T23:46:30.488Z,90.57
2019-04-16T23:49:27.445Z,90.64
2019-04-16T23:52:13.953Z,90.90
2019-04-16T23:54:54.720Z,91.53
2019-04-16T23:57:45.635Z,92.43
